TJIG/SIG METAR and TAF weather

Enter ICAO airport designator
Station Type Date Time Source
TJIG METAR 2019/02/17 22:50 UTC NOAA

TJIG 172250Z 09010KT 10SM SCT035 26/22 A3008


Station Type Date Time Source
TJIG Decoded METAR 2019/02/17 22:50 UTC NOAA

Station name not available
Feb 17, 2019 - 05:50 PM EST / 2019.02.17 2250 UTC
Wind: from the E (090 degrees) at 12 MPH (10 KT):0
Visibility: 10 mile(s):0
Sky conditions: partly cloudy
Temperature: 78 F (26 C)
Dew Point: 71 F (22 C)
Relative Humidity: 78%
Pressure (altimeter): 30.08 in. Hg (1018 hPa)
ob: TJIG 172250Z 09010KT 10SM SCT035 26/22 A3008
cycle: 23

Station Type Date Time Source
TJIG TAF UTC NOAA

Error!


Example: see airport list